sensor_id;sensor_type;location;lat;lon;timestamp;temperature;humidity
837;DHT22;400;53.550;9.932;2023-02-20T00:02:18;6.80;99.90
837;DHT22;400;53.550;9.932;2023-02-20T00:04:46;6.70;99.90
837;DHT22;400;53.550;9.932;2023-02-20T00:07:14;6.70;99.90
837;DHT22;400;53.550;9.932;2023-02-20T00:09:46;6.80;99.90
837;DHT22;400;53.550;9.932;2023-02-20T00:12:19;6.80;99.90
837;DHT22;400;53.550;9.932;2023-02-20T00:14:46;6.80;99.90
837;DHT22;400;53.550;9.932;2023-02-20T00:17:12;6.80;99.90
837;DHT22;400;53.550;9.932;2023-02-20T00:19:39;6.90;99.90
837;DHT22;400;53.550;9.932;2023-02-20T00:22:06;6.80;99.90
837;DHT22;400;53.550;9.932;2023-02-20T00:24:33;6.80;99.90
837;DHT22;400;53.550;9.932;2023-02-20T00:27:01;6.90;99.90
837;DHT22;400;53.550;9.932;2023-02-20T00:29:29;6.90;99.90
837;DHT22;400;53.550;9.932;2023-02-20T00:31:57;6.90;99.90
837;DHT22;400;53.550;9.932;2023-02-20T00:34:26;6.90;99.90
837;DHT22;400;53.550;9.932;2023-02-20T00:36:53;7.00;99.90
837;DHT22;400;53.550;9.932;2023-02-20T00:39:20;7.10;99.90
837;DHT22;400;53.550;9.932;2023-02-20T00:41:47;7.00;99.90
837;DHT22;400;53.550;9.932;2023-02-20T00:44:14;6.90;99.90
837;DHT22;400;53.550;9.932;2023-02-20T00:46:42;7.00;99.90
837;DHT22;400;53.550;9.932;2023-02-20T00:49:09;7.00;99.90
837;DHT22;400;53.550;9.932;2023-02-20T00:51:36;7.00;99.90
837;DHT22;400;53.550;9.932;2023-02-20T00:54:05;7.00;99.90
837;DHT22;400;53.550;9.932;2023-02-20T00:56:37;7.00;99.90
837;DHT22;400;53.550;9.932;2023-02-20T00:59:04;7.00;99.90
837;DHT22;400;53.550;9.932;2023-02-20T01:01:33;7.00;99.90
837;DHT22;400;53.550;9.932;2023-02-20T01:04:06;7.00;99.90
837;DHT22;400;53.550;9.932;2023-02-20T01:06:42;6.90;99.90
837;DHT22;400;53.550;9.932;2023-02-20T01:09:10;6.90;99.90
837;DHT22;400;53.550;9.932;2023-02-20T01:11:38;6.90;99.90
837;DHT22;400;53.550;9.932;2023-02-20T01:14:06;7.00;99.90
837;DHT22;400;53.550;9.932;2023-02-20T01:16:35;7.00;99.90
837;DHT22;400;53.550;9.932;2023-02-20T01:19:07;7.00;99.90
837;DHT22;400;53.550;9.932;2023-02-20T01:21:34;7.00;99.90
837;DHT22;400;53.550;9.932;2023-02-20T01:24:03;7.00;99.90
837;DHT22;400;53.550;9.932;2023-02-20T01:26:34;7.00;99.90
837;DHT22;400;53.550;9.932;2023-02-20T01:29:03;7.10;99.90
837;DHT22;400;53.550;9.932;2023-02-20T01:31:30;7.10;99.90
837;DHT22;400;53.550;9.932;2023-02-20T01:33:57;7.10;99.90
837;DHT22;400;53.550;9.932;2023-02-20T01:36:25;7.00;99.90
837;DHT22;400;53.550;9.932;2023-02-20T01:38:52;7.00;99.90
837;DHT22;400;53.550;9.932;2023-02-20T01:41:21;7.10;99.90
837;DHT22;400;53.550;9.932;2023-02-20T01:43:49;7.10;99.90
837;DHT22;400;53.550;9.932;2023-02-20T01:46:45;7.20;99.90
837;DHT22;400;53.550;9.932;2023-02-20T01:49:15;7.10;99.90
837;DHT22;400;53.550;9.932;2023-02-20T01:51:50;7.20;99.90
837;DHT22;400;53.550;9.932;2023-02-20T01:54:20;7.30;99.90
837;DHT22;400;53.550;9.932;2023-02-20T01:56:49;7.30;99.90
837;DHT22;400;53.550;9.932;2023-02-20T01:59:18;7.20;99.90
837;DHT22;400;53.550;9.932;2023-02-20T02:01:45;7.20;99.90
837;DHT22;400;53.550;9.932;2023-02-20T02:04:13;7.20;99.90
837;DHT22;400;53.550;9.932;2023-02-20T02:06:44;7.30;99.90
837;DHT22;400;53.550;9.932;2023-02-20T02:09:21;7.20;99.90
837;DHT22;400;53.550;9.932;2023-02-20T02:11:49;7.30;99.90
837;DHT22;400;53.550;9.932;2023-02-20T02:14:17;7.30;99.90
837;DHT22;400;53.550;9.932;2023-02-20T02:16:53;7.30;99.90
837;DHT22;400;53.550;9.932;2023-02-20T02:19:41;7.30;99.90
837;DHT22;400;53.550;9.932;2023-02-20T02:25:21;7.30;99.90
837;DHT22;400;53.550;9.932;2023-02-20T02:28:25;7.40;99.90
837;DHT22;400;53.550;9.932;2023-02-20T02:31:35;7.40;99.90
837;DHT22;400;53.550;9.932;2023-02-20T02:34:29;7.30;99.90
837;DHT22;400;53.550;9.932;2023-02-20T02:37:10;7.20;99.90
837;DHT22;400;53.550;9.932;2023-02-20T02:39:46;7.30;99.90
837;DHT22;400;53.550;9.932;2023-02-20T02:42:19;7.30;99.90
837;DHT22;400;53.550;9.932;2023-02-20T02:44:53;7.30;99.90
837;DHT22;400;53.550;9.932;2023-02-20T02:47:25;7.20;99.90
837;DHT22;400;53.550;9.932;2023-02-20T02:49:59;7.30;99.90
837;DHT22;400;53.550;9.932;2023-02-20T02:52:30;7.30;99.90
837;DHT22;400;53.550;9.932;2023-02-20T02:55:16;7.30;99.90
837;DHT22;400;53.550;9.932;2023-02-20T02:57:43;7.30;99.90
837;DHT22;400;53.550;9.932;2023-02-20T03:00:12;7.30;99.90
837;DHT22;400;53.550;9.932;2023-02-20T03:02:43;7.40;99.90
837;DHT22;400;53.550;9.932;2023-02-20T03:05:14;7.40;99.90
837;DHT22;400;53.550;9.932;2023-02-20T03:07:44;7.40;99.90
837;DHT22;400;53.550;9.932;2023-02-20T03:10:15;7.40;99.90
837;DHT22;400;53.550;9.932;2023-02-20T03:12:48;7.50;99.90
837;DHT22;400;53.550;9.932;2023-02-20T03:15:21;7.40;99.90
837;DHT22;400;53.550;9.932;2023-02-20T03:18:10;7.50;99.90
837;DHT22;400;53.550;9.932;2023-02-20T03:20:42;7.50;99.90
837;DHT22;400;53.550;9.932;2023-02-20T03:23:14;7.50;99.90
837;DHT22;400;53.550;9.932;2023-02-20T03:25:49;7.50;99.90
837;DHT22;400;53.550;9.932;2023-02-20T03:28:20;7.40;99.90
837;DHT22;400;53.550;9.932;2023-02-20T03:30:52;7.40;99.90
837;DHT22;400;53.550;9.932;2023-02-20T03:33:24;7.40;99.90
837;DHT22;400;53.550;9.932;2023-02-20T03:36:10;7.40;99.90
837;DHT22;400;53.550;9.932;2023-02-20T03:39:01;7.40;99.90
837;DHT22;400;53.550;9.932;2023-02-20T03:41:47;7.50;99.90
837;DHT22;400;53.550;9.932;2023-02-20T03:44:33;7.50;99.90
837;DHT22;400;53.550;9.932;2023-02-20T03:47:01;7.50;99.90
837;DHT22;400;53.550;9.932;2023-02-20T03:49:33;7.50;99.90
837;DHT22;400;53.550;9.932;2023-02-20T03:52:01;7.60;99.90
837;DHT22;400;53.550;9.932;2023-02-20T03:54:30;7.60;99.90
837;DHT22;400;53.550;9.932;2023-02-20T03:57:02;7.60;99.90
837;DHT22;400;53.550;9.932;2023-02-20T03:59:32;7.60;99.90
837;DHT22;400;53.550;9.932;2023-02-20T04:02:10;7.60;99.90
837;DHT22;400;53.550;9.932;2023-02-20T04:04:47;7.50;99.90
837;DHT22;400;53.550;9.932;2023-02-20T04:07:20;7.60;99.90
837;DHT22;400;53.550;9.932;2023-02-20T04:09:50;7.60;99.90
837;DHT22;400;53.550;9.932;2023-02-20T04:12:22;7.60;99.90
837;DHT22;400;53.550;9.932;2023-02-20T04:14:51;7.60;99.90
837;DHT22;400;53.550;9.932;2023-02-20T04:17:23;7.60;99.90
837;DHT22;400;53.550;9.932;2023-02-20T04:19:50;7.60;99.90
837;DHT22;400;53.550;9.932;2023-02-20T04:22:19;7.60;99.90
837;DHT22;400;53.550;9.932;2023-02-20T04:24:52;7.60;99.90
837;DHT22;400;53.550;9.932;2023-02-20T04:27:21;7.50;99.90
837;DHT22;400;53.550;9.932;2023-02-20T04:29:49;7.50;99.90
837;DHT22;400;53.550;9.932;2023-02-20T04:32:20;7.50;99.90
837;DHT22;400;53.550;9.932;2023-02-20T04:34:48;7.50;99.90
837;DHT22;400;53.550;9.932;2023-02-20T04:37:17;7.50;99.90
837;DHT22;400;53.550;9.932;2023-02-20T04:39:44;7.50;99.90
837;DHT22;400;53.550;9.932;2023-02-20T04:42:12;7.60;99.90
837;DHT22;400;53.550;9.932;2023-02-20T04:44:39;7.50;99.90
837;DHT22;400;53.550;9.932;2023-02-20T04:47:13;7.50;99.90
837;DHT22;400;53.550;9.932;2023-02-20T04:49:45;7.50;99.90
837;DHT22;400;53.550;9.932;2023-02-20T04:52:14;7.50;99.90
837;DHT22;400;53.550;9.932;2023-02-20T04:54:41;7.50;99.90
837;DHT22;400;53.550;9.932;2023-02-20T04:57:07;7.50;99.90
837;DHT22;400;53.550;9.932;2023-02-20T04:59:36;7.50;99.90
837;DHT22;400;53.550;9.932;2023-02-20T05:02:02;7.50;99.90
837;DHT22;400;53.550;9.932;2023-02-20T05:04:29;7.50;99.90
837;DHT22;400;53.550;9.932;2023-02-20T05:06:56;7.50;99.90
837;DHT22;400;53.550;9.932;2023-02-20T05:09:23;7.60;99.90
837;DHT22;400;53.550;9.932;2023-02-20T05:11:50;7.60;99.90
837;DHT22;400;53.550;9.932;2023-02-20T05:14:18;7.60;99.90
837;DHT22;400;53.550;9.932;2023-02-20T05:16:47;7.60;99.90
837;DHT22;400;53.550;9.932;2023-02-20T05:19:16;7.60;99.90
837;DHT22;400;53.550;9.932;2023-02-20T05:21:44;7.60;99.90
837;DHT22;400;53.550;9.932;2023-02-20T05:24:28;7.60;99.90
837;DHT22;400;53.550;9.932;2023-02-20T05:26:55;7.60;99.90
837;DHT22;400;53.550;9.932;2023-02-20T05:29:22;7.60;99.90
837;DHT22;400;53.550;9.932;2023-02-20T05:31:51;7.60;99.90
837;DHT22;400;53.550;9.932;2023-02-20T05:34:21;7.60;99.90
837;DHT22;400;53.550;9.932;2023-02-20T05:36:51;7.60;99.90
837;DHT22;400;53.550;9.932;2023-02-20T05:39:21;7.60;99.90
837;DHT22;400;53.550;9.932;2023-02-20T05:41:51;7.60;99.90
837;DHT22;400;53.550;9.932;2023-02-20T05:44:18;7.60;99.90
837;DHT22;400;53.550;9.932;2023-02-20T05:46:45;7.70;99.90
837;DHT22;400;53.550;9.932;2023-02-20T05:49:15;7.60;99.90
837;DHT22;400;53.550;9.932;2023-02-20T05:51:42;7.70;99.90
837;DHT22;400;53.550;9.932;2023-02-20T05:54:09;7.70;99.90
837;DHT22;400;53.550;9.932;2023-02-20T05:56:40;7.70;99.90
837;DHT22;400;53.550;9.932;2023-02-20T05:59:06;7.70;99.90
837;DHT22;400;53.550;9.932;2023-02-20T06:01:33;7.70;99.90
837;DHT22;400;53.550;9.932;2023-02-20T06:04:00;7.70;99.90
837;DHT22;400;53.550;9.932;2023-02-20T06:06:32;7.70;99.90
837;DHT22;400;53.550;9.932;2023-02-20T06:09:00;7.70;99.90
837;DHT22;400;53.550;9.932;2023-02-20T06:11:26;7.70;99.90
837;DHT22;400;53.550;9.932;2023-02-20T06:13:53;7.70;99.90
837;DHT22;400;53.550;9.932;2023-02-20T06:16:24;7.70;99.90
837;DHT22;400;53.550;9.932;2023-02-20T06:18:52;7.70;99.90
837;DHT22;400;53.550;9.932;2023-02-20T06:21:22;7.70;99.90
837;DHT22;400;53.550;9.932;2023-02-20T06:23:51;7.70;99.90
837;DHT22;400;53.550;9.932;2023-02-20T06:26:19;7.70;99.90
837;DHT22;400;53.550;9.932;2023-02-20T06:28:46;7.60;99.90
837;DHT22;400;53.550;9.932;2023-02-20T06:31:21;7.70;99.90
837;DHT22;400;53.550;9.932;2023-02-20T06:33:48;7.70;99.90
837;DHT22;400;53.550;9.932;2023-02-20T06:36:29;7.70;99.90
837;DHT22;400;53.550;9.932;2023-02-20T06:39:01;7.80;99.90
837;DHT22;400;53.550;9.932;2023-02-20T06:41:31;7.80;99.90
837;DHT22;400;53.550;9.932;2023-02-20T06:44:00;7.80;99.90
837;DHT22;400;53.550;9.932;2023-02-20T06:46:29;7.80;99.90
837;DHT22;400;53.550;9.932;2023-02-20T06:48:57;7.90;99.90
837;DHT22;400;53.550;9.932;2023-02-20T06:51:27;8.00;99.90
837;DHT22;400;53.550;9.932;2023-02-20T06:53:59;8.00;99.90
837;DHT22;400;53.550;9.932;2023-02-20T06:56:30;7.90;99.90
837;DHT22;400;53.550;9.932;2023-02-20T06:58:58;8.00;99.90
837;DHT22;400;53.550;9.932;2023-02-20T07:01:27;8.00;99.90
837;DHT22;400;53.550;9.932;2023-02-20T07:03:55;8.00;99.90
837;DHT22;400;53.550;9.932;2023-02-20T07:06:26;8.00;99.90
837;DHT22;400;53.550;9.932;2023-02-20T07:08:57;8.10;99.90
837;DHT22;400;53.550;9.932;2023-02-20T07:11:30;8.10;99.90
837;DHT22;400;53.550;9.932;2023-02-20T07:14:02;8.10;99.90
837;DHT22;400;53.550;9.932;2023-02-20T07:16:34;8.10;99.90
837;DHT22;400;53.550;9.932;2023-02-20T07:19:04;8.10;99.90
837;DHT22;400;53.550;9.932;2023-02-20T07:21:31;8.10;99.90
837;DHT22;400;53.550;9.932;2023-02-20T07:24:01;8.10;99.90
837;DHT22;400;53.550;9.932;2023-02-20T07:26:30;8.10;99.90
837;DHT22;400;53.550;9.932;2023-02-20T07:28:57;8.10;99.90
837;DHT22;400;53.550;9.932;2023-02-20T07:31:25;8.20;99.90
837;DHT22;400;53.550;9.932;2023-02-20T07:33:52;8.20;99.90
837;DHT22;400;53.550;9.932;2023-02-20T07:36:19;8.20;99.90
837;DHT22;400;53.550;9.932;2023-02-20T07:38:52;8.20;99.90
837;DHT22;400;53.550;9.932;2023-02-20T07:41:19;8.20;99.90
837;DHT22;400;53.550;9.932;2023-02-20T07:43:47;8.20;99.90
837;DHT22;400;53.550;9.932;2023-02-20T07:46:14;8.30;99.90
837;DHT22;400;53.550;9.932;2023-02-20T07:48:43;8.20;99.90
837;DHT22;400;53.550;9.932;2023-02-20T07:51:13;8.20;99.90
837;DHT22;400;53.550;9.932;2023-02-20T07:53:47;8.20;99.90
837;DHT22;400;53.550;9.932;2023-02-20T07:56:18;8.30;99.90
837;DHT22;400;53.550;9.932;2023-02-20T07:58:49;8.40;99.90
837;DHT22;400;53.550;9.932;2023-02-20T08:01:16;8.30;99.90
837;DHT22;400;53.550;9.932;2023-02-20T08:03:44;8.30;99.90
837;DHT22;400;53.550;9.932;2023-02-20T08:06:12;8.40;99.90
837;DHT22;400;53.550;9.932;2023-02-20T08:08:40;8.40;99.90
837;DHT22;400;53.550;9.932;2023-02-20T08:11:08;8.40;99.90
837;DHT22;400;53.550;9.932;2023-02-20T08:13:37;8.50;99.90
837;DHT22;400;53.550;9.932;2023-02-20T08:16:06;8.40;99.90
837;DHT22;400;53.550;9.932;2023-02-20T08:18:33;8.50;99.90
837;DHT22;400;53.550;9.932;2023-02-20T08:21:00;8.50;99.90
837;DHT22;400;53.550;9.932;2023-02-20T08:23:28;8.60;99.90
837;DHT22;400;53.550;9.932;2023-02-20T08:25:56;8.60;99.90
837;DHT22;400;53.550;9.932;2023-02-20T08:28:24;8.50;99.90
837;DHT22;400;53.550;9.932;2023-02-20T08:30:53;8.50;99.90
837;DHT22;400;53.550;9.932;2023-02-20T08:33:22;8.50;99.90
837;DHT22;400;53.550;9.932;2023-02-20T08:35:48;8.60;99.90
837;DHT22;400;53.550;9.932;2023-02-20T08:38:27;8.50;99.90
837;DHT22;400;53.550;9.932;2023-02-20T08:40:54;8.60;99.90
837;DHT22;400;53.550;9.932;2023-02-20T08:43:24;8.50;99.90
837;DHT22;400;53.550;9.932;2023-02-20T08:45:55;8.60;99.90
837;DHT22;400;53.550;9.932;2023-02-20T08:48:24;8.50;99.90
837;DHT22;400;53.550;9.932;2023-02-20T08:50:51;8.50;99.90
837;DHT22;400;53.550;9.932;2023-02-20T08:53:18;8.50;99.90
837;DHT22;400;53.550;9.932;2023-02-20T08:55:45;8.60;99.90
837;DHT22;400;53.550;9.932;2023-02-20T08:58:12;8.50;99.90
837;DHT22;400;53.550;9.932;2023-02-20T09:00:39;8.60;99.90
837;DHT22;400;53.550;9.932;2023-02-20T09:03:06;8.60;99.90
837;DHT22;400;53.550;9.932;2023-02-20T09:05:34;8.60;99.90
837;DHT22;400;53.550;9.932;2023-02-20T09:08:03;8.70;99.90
837;DHT22;400;53.550;9.932;2023-02-20T09:10:33;8.70;99.90
837;DHT22;400;53.550;9.932;2023-02-20T09:13:00;8.70;99.90
837;DHT22;400;53.550;9.932;2023-02-20T09:15:26;8.80;99.90
837;DHT22;400;53.550;9.932;2023-02-20T09:17:58;8.80;99.90
837;DHT22;400;53.550;9.932;2023-02-20T09:21:05;8.80;99.90
837;DHT22;400;53.550;9.932;2023-02-20T09:23:41;8.80;99.90
837;DHT22;400;53.550;9.932;2023-02-20T09:26:12;8.80;99.90
837;DHT22;400;53.550;9.932;2023-02-20T09:28:43;8.80;99.90
837;DHT22;400;53.550;9.932;2023-02-20T09:31:11;8.80;99.90
837;DHT22;400;53.550;9.932;2023-02-20T09:33:42;8.80;99.90
837;DHT22;400;53.550;9.932;2023-02-20T09:36:11;8.80;99.90
837;DHT22;400;53.550;9.932;2023-02-20T09:38:38;8.80;99.90
837;DHT22;400;53.550;9.932;2023-02-20T09:41:05;8.80;99.90
837;DHT22;400;53.550;9.932;2023-02-20T09:43:45;8.80;99.90
837;DHT22;400;53.550;9.932;2023-02-20T09:46:15;8.90;99.90
837;DHT22;400;53.550;9.932;2023-02-20T09:48:57;8.90;99.90
837;DHT22;400;53.550;9.932;2023-02-20T09:51:31;8.90;99.90
837;DHT22;400;53.550;9.932;2023-02-20T09:54:02;8.90;99.90
837;DHT22;400;53.550;9.932;2023-02-20T09:56:35;9.00;99.90
837;DHT22;400;53.550;9.932;2023-02-20T09:59:14;9.00;99.90
837;DHT22;400;53.550;9.932;2023-02-20T10:01:51;9.00;99.90
837;DHT22;400;53.550;9.932;2023-02-20T10:04:21;9.10;99.90
837;DHT22;400;53.550;9.932;2023-02-20T10:06:54;9.10;99.90
837;DHT22;400;53.550;9.932;2023-02-20T10:09:25;9.10;99.90
837;DHT22;400;53.550;9.932;2023-02-20T10:12:09;9.10;99.90
837;DHT22;400;53.550;9.932;2023-02-20T10:14:58;9.20;99.90
837;DHT22;400;53.550;9.932;2023-02-20T10:17:37;9.20;99.90
837;DHT22;400;53.550;9.932;2023-02-20T10:20:14;9.20;99.90
837;DHT22;400;53.550;9.932;2023-02-20T10:22:50;9.30;99.90
837;DHT22;400;53.550;9.932;2023-02-20T10:25:24;9.20;99.90
837;DHT22;400;53.550;9.932;2023-02-20T10:27:53;9.30;99.90
837;DHT22;400;53.550;9.932;2023-02-20T10:30:25;9.30;99.90
837;DHT22;400;53.550;9.932;2023-02-20T10:32:56;9.30;99.90
837;DHT22;400;53.550;9.932;2023-02-20T10:35:31;9.40;99.90
837;DHT22;400;53.550;9.932;2023-02-20T10:38:04;9.40;99.90
837;DHT22;400;53.550;9.932;2023-02-20T10:40:37;9.50;99.90
837;DHT22;400;53.550;9.932;2023-02-20T10:43:11;9.50;99.90
837;DHT22;400;53.550;9.932;2023-02-20T10:45:51;9.60;99.90
837;DHT22;400;53.550;9.932;2023-02-20T10:48:23;9.60;99.90
837;DHT22;400;53.550;9.932;2023-02-20T10:50:58;9.60;99.90
837;DHT22;400;53.550;9.932;2023-02-20T10:53:39;9.60;99.90
837;DHT22;400;53.550;9.932;2023-02-20T10:56:16;9.70;99.90
837;DHT22;400;53.550;9.932;2023-02-20T10:58:54;9.70;99.90
837;DHT22;400;53.550;9.932;2023-02-20T11:01:26;9.70;99.90
837;DHT22;400;53.550;9.932;2023-02-20T11:03:58;9.70;99.90
837;DHT22;400;53.550;9.932;2023-02-20T11:06:33;9.80;99.90
837;DHT22;400;53.550;9.932;2023-02-20T11:09:09;9.80;99.90
837;DHT22;400;53.550;9.932;2023-02-20T11:11:39;9.70;99.90
837;DHT22;400;53.550;9.932;2023-02-20T11:14:12;9.80;99.90
837;DHT22;400;53.550;9.932;2023-02-20T11:16:46;9.80;99.90
837;DHT22;400;53.550;9.932;2023-02-20T11:19:31;9.80;99.90
837;DHT22;400;53.550;9.932;2023-02-20T11:22:02;9.80;99.90
837;DHT22;400;53.550;9.932;2023-02-20T11:24:34;9.80;99.90
837;DHT22;400;53.550;9.932;2023-02-20T11:27:05;9.80;99.90
837;DHT22;400;53.550;9.932;2023-02-20T11:29:37;9.80;99.90
837;DHT22;400;53.550;9.932;2023-02-20T11:32:30;9.80;99.90
837;DHT22;400;53.550;9.932;2023-02-20T11:35:21;9.90;99.90
837;DHT22;400;53.550;9.932;2023-02-20T11:38:16;9.90;99.90
837;DHT22;400;53.550;9.932;2023-02-20T11:41:07;9.90;99.90
837;DHT22;400;53.550;9.932;2023-02-20T11:43:38;9.90;99.90
837;DHT22;400;53.550;9.932;2023-02-20T11:46:10;10.00;99.90
837;DHT22;400;53.550;9.932;2023-02-20T11:48:57;10.00;99.90
837;DHT22;400;53.550;9.932;2023-02-20T11:51:37;10.10;99.90
837;DHT22;400;53.550;9.932;2023-02-20T11:54:11;10.10;99.90
837;DHT22;400;53.550;9.932;2023-02-20T11:57:00;10.20;99.90
837;DHT22;400;53.550;9.932;2023-02-20T11:59:42;10.20;99.90
837;DHT22;400;53.550;9.932;2023-02-20T12:02:27;10.30;99.90
837;DHT22;400;53.550;9.932;2023-02-20T12:05:04;10.30;99.90
837;DHT22;400;53.550;9.932;2023-02-20T12:07:36;10.40;99.90
837;DHT22;400;53.550;9.932;2023-02-20T12:10:18;10.40;99.90
837;DHT22;400;53.550;9.932;2023-02-20T12:12:51;10.40;99.90
837;DHT22;400;53.550;9.932;2023-02-20T12:15:23;10.40;99.90
837;DHT22;400;53.550;9.932;2023-02-20T12:18:18;10.40;99.90
837;DHT22;400;53.550;9.932;2023-02-20T12:20:55;10.40;99.90
837;DHT22;400;53.550;9.932;2023-02-20T12:23:32;10.40;99.90
837;DHT22;400;53.550;9.932;2023-02-20T12:26:11;10.50;99.90
837;DHT22;400;53.550;9.932;2023-02-20T12:28:50;10.50;99.90
837;DHT22;400;53.550;9.932;2023-02-20T12:31:31;10.50;99.90
837;DHT22;400;53.550;9.932;2023-02-20T12:34:27;10.50;99.90
837;DHT22;400;53.550;9.932;2023-02-20T12:37:02;10.50;99.90
837;DHT22;400;53.550;9.932;2023-02-20T12:39:43;10.60;99.90
837;DHT22;400;53.550;9.932;2023-02-20T12:42:20;10.60;99.90
837;DHT22;400;53.550;9.932;2023-02-20T12:45:19;10.50;99.90
837;DHT22;400;53.550;9.932;2023-02-20T12:47:57;10.60;99.90
837;DHT22;400;53.550;9.932;2023-02-20T12:50:48;10.60;99.90
837;DHT22;400;53.550;9.932;2023-02-20T12:53:29;10.60;99.90
837;DHT22;400;53.550;9.932;2023-02-20T12:56:18;10.60;99.90
837;DHT22;400;53.550;9.932;2023-02-20T12:58:58;10.60;99.90
837;DHT22;400;53.550;9.932;2023-02-20T13:01:31;10.60;99.90
837;DHT22;400;53.550;9.932;2023-02-20T13:04:09;10.60;99.90
837;DHT22;400;53.550;9.932;2023-02-20T13:06:43;10.60;99.90
837;DHT22;400;53.550;9.932;2023-02-20T13:09:18;10.60;99.90
837;DHT22;400;53.550;9.932;2023-02-20T13:11:48;10.60;99.90
837;DHT22;400;53.550;9.932;2023-02-20T13:14:28;10.60;99.90
837;DHT22;400;53.550;9.932;2023-02-20T13:17:06;10.60;99.90
837;DHT22;400;53.550;9.932;2023-02-20T13:19:39;10.60;99.90
837;DHT22;400;53.550;9.932;2023-02-20T13:22:10;10.70;99.90
837;DHT22;400;53.550;9.932;2023-02-20T13:24:44;10.70;99.90
837;DHT22;400;53.550;9.932;2023-02-20T13:27:27;10.70;99.90
837;DHT22;400;53.550;9.932;2023-02-20T13:29:58;10.70;99.90
837;DHT22;400;53.550;9.932;2023-02-20T13:32:29;10.60;99.90
837;DHT22;400;53.550;9.932;2023-02-20T13:35:33;10.70;99.90
837;DHT22;400;53.550;9.932;2023-02-20T13:38:10;10.70;99.90
837;DHT22;400;53.550;9.932;2023-02-20T13:40:40;10.70;99.90
837;DHT22;400;53.550;9.932;2023-02-20T13:43:27;10.60;99.90
837;DHT22;400;53.550;9.932;2023-02-20T13:46:15;10.60;99.90
837;DHT22;400;53.550;9.932;2023-02-20T13:48:49;10.60;99.90
837;DHT22;400;53.550;9.932;2023-02-20T13:51:35;10.70;99.90
837;DHT22;400;53.550;9.932;2023-02-20T13:54:26;10.60;99.90
837;DHT22;400;53.550;9.932;2023-02-20T13:56:59;10.60;99.90
837;DHT22;400;53.550;9.932;2023-02-20T13:59:31;10.60;99.90
837;DHT22;400;53.550;9.932;2023-02-20T14:02:17;10.60;99.90
837;DHT22;400;53.550;9.932;2023-02-20T14:04:59;10.60;99.90
837;DHT22;400;53.550;9.932;2023-02-20T14:07:29;10.60;99.90
837;DHT22;400;53.550;9.932;2023-02-20T14:10:00;10.60;99.90
837;DHT22;400;53.550;9.932;2023-02-20T14:12:28;10.60;99.90
837;DHT22;400;53.550;9.932;2023-02-20T14:14:55;10.60;99.90
837;DHT22;400;53.550;9.932;2023-02-20T14:17:23;10.60;99.90
837;DHT22;400;53.550;9.932;2023-02-20T14:19:57;10.60;99.90
837;DHT22;400;53.550;9.932;2023-02-20T14:22:29;10.60;99.90
837;DHT22;400;53.550;9.932;2023-02-20T14:28:13;10.60;99.90
837;DHT22;400;53.550;9.932;2023-02-20T14:30:42;10.60;99.90
837;DHT22;400;53.550;9.932;2023-02-20T14:33:19;10.60;99.90
837;DHT22;400;53.550;9.932;2023-02-20T14:35:57;10.60;99.90
837;DHT22;400;53.550;9.932;2023-02-20T14:38:33;10.70;99.90
837;DHT22;400;53.550;9.932;2023-02-20T14:41:14;10.70;99.90
837;DHT22;400;53.550;9.932;2023-02-20T14:43:54;10.70;99.90
837;DHT22;400;53.550;9.932;2023-02-20T14:46:28;10.60;99.90
837;DHT22;400;53.550;9.932;2023-02-20T14:49:06;10.70;99.90
837;DHT22;400;53.550;9.932;2023-02-20T14:51:35;10.70;99.90
837;DHT22;400;53.550;9.932;2023-02-20T14:54:15;10.70;99.90
837;DHT22;400;53.550;9.932;2023-02-20T14:56:43;10.70;99.90
837;DHT22;400;53.550;9.932;2023-02-20T14:59:26;10.70;99.90
837;DHT22;400;53.550;9.932;2023-02-20T15:01:56;10.70;99.90
837;DHT22;400;53.550;9.932;2023-02-20T15:04:25;10.70;99.90
837;DHT22;400;53.550;9.932;2023-02-20T15:07:03;10.70;99.90
837;DHT22;400;53.550;9.932;2023-02-20T15:09:36;10.80;99.90
837;DHT22;400;53.550;9.932;2023-02-20T15:12:04;10.80;99.90
837;DHT22;400;53.550;9.932;2023-02-20T15:14:36;10.70;99.90
837;DHT22;400;53.550;9.932;2023-02-20T15:17:08;10.80;99.90
837;DHT22;400;53.550;9.932;2023-02-20T15:19:37;10.80;99.90
837;DHT22;400;53.550;9.932;2023-02-20T15:22:24;10.80;99.90
837;DHT22;400;53.550;9.932;2023-02-20T15:24:51;10.80;99.90
837;DHT22;400;53.550;9.932;2023-02-20T15:27:20;10.70;99.90
837;DHT22;400;53.550;9.932;2023-02-20T15:30:10;10.60;99.90
837;DHT22;400;53.550;9.932;2023-02-20T15:32:40;10.60;99.90
837;DHT22;400;53.550;9.932;2023-02-20T15:35:13;10.50;99.90
837;DHT22;400;53.550;9.932;2023-02-20T15:37:43;10.50;99.90
837;DHT22;400;53.550;9.932;2023-02-20T15:40:21;10.40;99.90
837;DHT22;400;53.550;9.932;2023-02-20T15:42:49;10.30;99.90
837;DHT22;400;53.550;9.932;2023-02-20T15:45:21;10.30;99.90
837;DHT22;400;53.550;9.932;2023-02-20T15:47:48;10.30;99.90
837;DHT22;400;53.550;9.932;2023-02-20T15:50:15;10.20;99.90
837;DHT22;400;53.550;9.932;2023-02-20T15:52:44;10.30;99.90
837;DHT22;400;53.550;9.932;2023-02-20T15:55:14;10.20;99.90
837;DHT22;400;53.550;9.932;2023-02-20T15:57:43;10.10;99.90
837;DHT22;400;53.550;9.932;2023-02-20T16:00:19;10.10;99.90
837;DHT22;400;53.550;9.932;2023-02-20T16:02:47;10.10;99.90
837;DHT22;400;53.550;9.932;2023-02-20T16:05:17;10.10;99.90
837;DHT22;400;53.550;9.932;2023-02-20T16:07:46;10.00;99.90
837;DHT22;400;53.550;9.932;2023-02-20T16:10:15;10.00;99.90
837;DHT22;400;53.550;9.932;2023-02-20T16:12:42;10.00;99.90
837;DHT22;400;53.550;9.932;2023-02-20T16:15:13;10.00;99.90
837;DHT22;400;53.550;9.932;2023-02-20T16:17:41;9.90;99.90
837;DHT22;400;53.550;9.932;2023-02-20T16:20:13;9.90;99.90
837;DHT22;400;53.550;9.932;2023-02-20T16:22:40;10.00;99.90
837;DHT22;400;53.550;9.932;2023-02-20T16:25:10;9.90;99.90
837;DHT22;400;53.550;9.932;2023-02-20T16:27:40;9.90;99.90
837;DHT22;400;53.550;9.932;2023-02-20T16:30:15;9.90;99.90
837;DHT22;400;53.550;9.932;2023-02-20T16:32:47;9.90;99.90
837;DHT22;400;53.550;9.932;2023-02-20T16:35:30;9.90;99.90
837;DHT22;400;53.550;9.932;2023-02-20T16:38:07;9.90;99.90
837;DHT22;400;53.550;9.932;2023-02-20T16:40:39;9.90;99.90
837;DHT22;400;53.550;9.932;2023-02-20T16:43:19;9.80;99.90
837;DHT22;400;53.550;9.932;2023-02-20T16:46:11;9.90;99.90
837;DHT22;400;53.550;9.932;2023-02-20T16:48:40;9.90;99.90
837;DHT22;400;53.550;9.932;2023-02-20T16:51:19;9.90;99.90
837;DHT22;400;53.550;9.932;2023-02-20T16:53:48;9.80;99.90
837;DHT22;400;53.550;9.932;2023-02-20T16:56:22;9.90;99.90
837;DHT22;400;53.550;9.932;2023-02-20T16:58:54;9.80;99.90
837;DHT22;400;53.550;9.932;2023-02-20T17:01:26;9.80;99.90
837;DHT22;400;53.550;9.932;2023-02-20T17:04:01;9.80;99.90
837;DHT22;400;53.550;9.932;2023-02-20T17:06:43;9.80;99.90
837;DHT22;400;53.550;9.932;2023-02-20T17:11:59;9.80;99.90
837;DHT22;400;53.550;9.932;2023-02-20T17:14:26;9.80;99.90
837;DHT22;400;53.550;9.932;2023-02-20T17:17:06;9.80;99.90
837;DHT22;400;53.550;9.932;2023-02-20T17:19:55;9.80;99.90
837;DHT22;400;53.550;9.932;2023-02-20T17:22:51;9.80;99.90
837;DHT22;400;53.550;9.932;2023-02-20T17:25:22;9.80;99.90
837;DHT22;400;53.550;9.932;2023-02-20T17:27:53;9.70;99.90
837;DHT22;400;53.550;9.932;2023-02-20T17:30:22;9.80;99.90
837;DHT22;400;53.550;9.932;2023-02-20T17:32:49;9.80;99.90
837;DHT22;400;53.550;9.932;2023-02-20T17:35:16;9.70;99.90